createdAt,value
2022-09-14T00:00:08.906Z,6.20
2022-09-14T00:02:11.877Z,4.50
2022-09-14T00:04:18.307Z,4.93
2022-09-14T00:06:21.019Z,3.73
2022-09-14T00:08:23.674Z,3.30
2022-09-14T00:10:26.381Z,3.63
2022-09-14T00:12:29.065Z,4.20
2022-09-14T00:14:31.704Z,3.03
2022-09-14T00:16:37.110Z,4.70
2022-09-14T00:18:39.869Z,2.33
2022-09-14T00:20:43.850Z,4.27
2022-09-14T00:22:46.544Z,2.37
2022-09-14T00:24:49.263Z,3.93
2022-09-14T00:26:52.848Z,1.60
2022-09-14T00:28:58.920Z,5.23
2022-09-14T00:31:01.594Z,2.77
2022-09-14T00:33:04.403Z,4.20
2022-09-14T00:35:07.816Z,3.23
2022-09-14T00:37:12.590Z,2.37
2022-09-14T00:39:17.194Z,2.20
2022-09-14T00:41:22.816Z,2.57
2022-09-14T00:43:25.829Z,3.57
2022-09-14T00:45:28.872Z,4.73
2022-09-14T00:47:33.571Z,3.73
2022-09-14T00:49:38.804Z,4.07
2022-09-14T00:51:48.182Z,3.43
2022-09-14T00:53:52.363Z,6.13
2022-09-14T00:55:55.189Z,3.90
2022-09-14T00:57:57.965Z,6.27
2022-09-14T01:00:01.128Z,5.73
2022-09-14T01:02:04.843Z,7.03
2022-09-14T01:04:07.593Z,8.40
2022-09-14T01:06:18.332Z,6.80
2022-09-14T01:08:36.055Z,10.07
2022-09-14T01:10:52.818Z,9.90
2022-09-14T01:13:08.416Z,9.53
2022-09-14T01:15:20.222Z,8.47
2022-09-14T01:17:28.365Z,10.60
2022-09-14T01:19:43.163Z,10.80
2022-09-14T01:21:46.635Z,10.03
2022-09-14T01:23:55.689Z,10.57
2022-09-14T01:26:37.399Z,14.17
2022-09-14T01:28:44.430Z,10.13
2022-09-14T01:30:49.077Z,7.70
2022-09-14T01:32:55.325Z,10.33
2022-09-14T01:35:04.728Z,8.30
2022-09-14T01:37:13.189Z,10.83
2022-09-14T01:39:18.892Z,12.73
2022-09-14T01:41:26.243Z,9.47
2022-09-14T01:43:36.252Z,10.77
2022-09-14T01:45:45.274Z,12.17
2022-09-14T01:47:52.084Z,7.03
2022-09-14T01:49:59.874Z,10.53
2022-09-14T01:52:07.005Z,6.97
2022-09-14T01:54:14.684Z,6.77
2022-09-14T01:56:21.114Z,9.60
2022-09-14T01:58:30.078Z,10.47
2022-09-14T02:00:34.448Z,10.87
2022-09-14T02:02:42.380Z,8.43
2022-09-14T02:04:55.639Z,7.23
2022-09-14T02:06:58.470Z,7.23
2022-09-14T02:09:01.389Z,9.23
2022-09-14T02:11:04.229Z,7.10
2022-09-14T02:13:07.769Z,11.30
2022-09-14T02:15:13.678Z,11.70
2022-09-14T02:17:16.767Z,10.77
2022-09-14T02:19:23.798Z,10.37
2022-09-14T02:21:29.796Z,7.73
2022-09-14T02:23:32.716Z,8.40
2022-09-14T02:25:36.365Z,7.83
2022-09-14T02:27:39.158Z,9.60
2022-09-14T02:29:42.428Z,9.20
2022-09-14T02:31:55.715Z,8.70
2022-09-14T02:34:06.513Z,9.27
2022-09-14T02:36:17.601Z,9.57
2022-09-14T02:38:28.059Z,10.50
2022-09-14T02:40:36.355Z,8.30
2022-09-14T02:42:48.822Z,9.63
2022-09-14T02:45:05.163Z,10.37
2022-09-14T02:47:16.139Z,8.60
2022-09-14T02:49:27.817Z,7.63
2022-09-14T02:51:35.669Z,7.97
2022-09-14T02:53:44.508Z,7.30
2022-09-14T02:55:52.267Z,8.53
2022-09-14T02:58:02.978Z,8.10
2022-09-14T03:00:06.476Z,8.13
2022-09-14T03:02:09.489Z,8.53
2022-09-14T03:04:12.274Z,5.97
2022-09-14T03:06:15.174Z,6.03
2022-09-14T03:08:19.238Z,8.90
2022-09-14T03:10:22.326Z,7.03
2022-09-14T03:12:24.980Z,7.27
2022-09-14T03:14:27.781Z,6.53
2022-09-14T03:16:30.597Z,7.90
2022-09-14T03:18:33.721Z,9.03
2022-09-14T03:20:37.289Z,5.60
2022-09-14T03:22:39.981Z,5.40
2022-09-14T03:24:44.108Z,6.13
2022-09-14T03:26:47.272Z,6.60
2022-09-14T03:28:51.898Z,7.50
2022-09-14T03:30:55.216Z,8.17
2022-09-14T03:32:59.209Z,7.20
2022-09-14T03:35:01.959Z,13.10
2022-09-14T03:37:04.667Z,4.77
2022-09-14T03:39:07.382Z,6.73
2022-09-14T03:41:12.239Z,7.33
2022-09-14T03:43:15.174Z,5.03
2022-09-14T03:45:19.341Z,8.77
2022-09-14T03:47:22.016Z,7.13
2022-09-14T03:49:24.798Z,5.33
2022-09-14T03:51:27.997Z,8.90
2022-09-14T03:53:31.344Z,5.37
2022-09-14T03:55:34.231Z,6.37
2022-09-14T03:57:38.343Z,7.13
2022-09-14T03:59:43.708Z,6.10
2022-09-14T04:01:47.030Z,8.03
2022-09-14T04:03:50.744Z,6.47
2022-09-14T04:05:56.747Z,8.80
2022-09-14T04:07:59.479Z,11.40
2022-09-14T04:10:02.214Z,7.60
2022-09-14T04:12:05.181Z,7.73
2022-09-14T04:14:09.378Z,7.20
2022-09-14T04:16:13.010Z,10.73
2022-09-14T04:18:15.882Z,11.43
2022-09-14T04:20:19.123Z,9.07
2022-09-14T04:22:21.837Z,6.27
2022-09-14T04:24:29.434Z,7.33
2022-09-14T04:26:33.446Z,7.20
2022-09-14T04:28:36.477Z,8.43
2022-09-14T04:30:40.522Z,8.83
2022-09-14T04:32:44.457Z,6.00
2022-09-14T04:34:47.173Z,8.30
2022-09-14T04:36:49.855Z,10.60
2022-09-14T04:38:55.138Z,7.07
2022-09-14T04:40:58.572Z,6.10
2022-09-14T04:43:01.277Z,7.30
2022-09-14T04:45:04.271Z,7.07
2022-09-14T04:47:08.574Z,6.83
2022-09-14T04:49:11.507Z,8.20
2022-09-14T04:51:17.008Z,7.13
2022-09-14T04:53:19.715Z,6.93
2022-09-14T04:55:24.108Z,7.13
2022-09-14T04:57:27.057Z,5.43
2022-09-14T04:59:29.746Z,8.80
2022-09-14T05:01:34.601Z,8.73
2022-09-14T05:03:39.829Z,7.43
2022-09-14T05:05:44.892Z,4.73
2022-09-14T05:07:47.762Z,7.40
2022-09-14T05:09:50.431Z,6.63
2022-09-14T05:11:53.138Z,5.37
2022-09-14T05:13:57.184Z,7.17
2022-09-14T05:16:06.910Z,7.40
2022-09-14T05:18:09.673Z,5.93
2022-09-14T05:20:13.788Z,7.57
2022-09-14T05:22:16.502Z,5.50
2022-09-14T05:24:20.433Z,7.90
2022-09-14T05:26:23.923Z,8.13
2022-09-14T05:28:26.939Z,10.07
2022-09-14T05:30:29.707Z,4.67
2022-09-14T05:32:32.413Z,7.97
2022-09-14T05:34:35.115Z,7.80
2022-09-14T05:36:40.659Z,7.17
2022-09-14T05:38:43.713Z,9.40
2022-09-14T05:40:46.427Z,5.43
2022-09-14T05:42:49.126Z,7.63
2022-09-14T05:44:52.254Z,6.27
2022-09-14T05:46:55.131Z,6.23
2022-09-14T05:48:57.924Z,5.87
2022-09-14T05:51:01.712Z,5.47
2022-09-14T05:53:05.779Z,7.33
2022-09-14T05:55:09.199Z,9.00
2022-09-14T05:57:11.997Z,4.97
2022-09-14T05:59:15.019Z,7.20
2022-09-14T06:01:20.061Z,5.87
2022-09-14T06:03:22.884Z,13.67
2022-09-14T06:05:26.209Z,9.70
2022-09-14T06:07:28.967Z,8.90
2022-09-14T06:09:33.415Z,6.53
2022-09-14T06:11:37.320Z,9.37
2022-09-14T06:13:40.269Z,7.13
2022-09-14T06:15:43.044Z,7.67
2022-09-14T06:17:45.726Z,7.10
2022-09-14T06:19:48.422Z,8.33
2022-09-14T06:21:51.096Z,6.07
2022-09-14T06:23:54.916Z,11.07
2022-09-14T06:26:00.770Z,10.20
2022-09-14T06:28:03.883Z,9.10
2022-09-14T06:30:07.955Z,6.67
2022-09-14T06:32:11.200Z,7.80
2022-09-14T06:34:13.903Z,19.27
2022-09-14T06:36:19.595Z,9.00
2022-09-14T06:38:22.512Z,8.27
2022-09-14T06:40:27.073Z,8.10
2022-09-14T06:42:31.704Z,9.70
2022-09-14T06:44:34.389Z,6.60
2022-09-14T06:46:37.242Z,8.53
2022-09-14T06:48:41.768Z,7.97
2022-09-14T06:50:44.442Z,5.73
2022-09-14T06:52:47.143Z,8.77
2022-09-14T06:54:49.835Z,9.70
2022-09-14T06:56:52.679Z,10.03
2022-09-14T06:58:56.739Z,8.23
2022-09-14T07:01:02.803Z,10.13
2022-09-14T07:03:05.725Z,8.83
2022-09-14T07:05:09.373Z,7.10
2022-09-14T07:07:12.179Z,7.90
2022-09-14T07:09:15.108Z,7.73
2022-09-14T07:11:19.422Z,7.43
2022-09-14T07:13:22.101Z,7.30
2022-09-14T07:15:26.238Z,6.73
2022-09-14T07:17:28.905Z,8.43
2022-09-14T07:19:31.866Z,5.63
2022-09-14T07:21:35.778Z,6.97
2022-09-14T07:23:41.441Z,8.93
2022-09-14T07:25:44.099Z,6.10
2022-09-14T07:27:46.755Z,8.00
2022-09-14T07:29:49.430Z,10.47
2022-09-14T07:31:54.796Z,8.37
2022-09-14T07:33:58.904Z,7.97
2022-09-14T07:36:08.526Z,9.13
2022-09-14T07:38:11.226Z,7.43
2022-09-14T07:40:14.000Z,8.03
2022-09-14T07:42:16.800Z,5.13
2022-09-14T07:44:20.054Z,5.60
2022-09-14T07:46:23.352Z,8.23
2022-09-14T07:48:27.685Z,7.40
2022-09-14T07:50:30.417Z,5.47
2022-09-14T07:52:38.004Z,5.80
2022-09-14T07:54:41.838Z,7.63
2022-09-14T07:56:45.418Z,7.67
2022-09-14T07:58:51.479Z,6.97
2022-09-14T08:01:00.553Z,6.73
2022-09-14T08:03:03.305Z,8.63
2022-09-14T08:05:08.387Z,5.30
2022-09-14T08:07:11.191Z,7.00
2022-09-14T08:09:14.241Z,8.63
2022-09-14T08:11:19.401Z,9.83
2022-09-14T08:13:22.102Z,16.20
2022-09-14T08:15:28.384Z,16.63
2022-09-14T08:17:31.429Z,12.17
2022-09-14T08:19:34.158Z,7.50
2022-09-14T08:21:39.853Z,9.63
2022-09-14T08:23:46.261Z,8.03
2022-09-14T08:25:48.986Z,7.13
2022-09-14T08:27:51.662Z,7.07
2022-09-14T08:29:54.418Z,6.73
2022-09-14T08:31:58.384Z,6.93
2022-09-14T08:34:03.585Z,7.80
2022-09-14T08:36:08.521Z,5.90
2022-09-14T08:38:12.593Z,7.50
2022-09-14T08:40:17.514Z,6.20
2022-09-14T08:42:25.005Z,5.97
2022-09-14T08:44:30.133Z,7.80
2022-09-14T08:46:36.558Z,7.23
2022-09-14T08:48:45.923Z,7.03
2022-09-14T08:50:53.669Z,6.10
2022-09-14T08:52:56.482Z,5.97
2022-09-14T08:55:03.145Z,9.07
2022-09-14T08:57:16.716Z,6.20
2022-09-14T08:59:34.114Z,7.83
2022-09-14T09:01:45.381Z,6.70
2022-09-14T09:04:06.536Z,9.10
2022-09-14T09:06:16.437Z,8.40
2022-09-14T09:08:25.534Z,5.93
2022-09-14T09:10:30.647Z,8.37
2022-09-14T09:12:38.444Z,7.53
2022-09-14T09:14:43.934Z,14.80
2022-09-14T09:16:50.505Z,13.07
2022-09-14T09:18:59.792Z,12.90
2022-09-14T09:21:06.641Z,8.40
2022-09-14T09:23:15.017Z,9.50
2022-09-14T09:25:24.011Z,7.60
2022-09-14T09:27:28.656Z,6.70
2022-09-14T09:29:31.447Z,8.20
2022-09-14T09:31:36.284Z,6.03
2022-09-14T09:33:39.096Z,9.40
2022-09-14T09:35:41.843Z,5.73
2022-09-14T09:37:44.576Z,8.20
2022-09-14T09:39:47.984Z,6.33
2022-09-14T09:41:56.830Z,7.30
2022-09-14T09:44:02.778Z,7.10
2022-09-14T09:46:08.315Z,6.30
2022-09-14T09:48:11.714Z,6.80
2022-09-14T09:50:21.088Z,8.13
2022-09-14T09:52:23.848Z,6.80
2022-09-14T09:54:30.494Z,8.33
2022-09-14T09:56:36.150Z,10.07
2022-09-14T09:58:40.045Z,10.23
2022-09-14T10:00:57.866Z,9.07
2022-09-14T10:03:15.761Z,8.83
2022-09-14T10:05:24.102Z,8.93
2022-09-14T10:07:27.679Z,9.57
2022-09-14T10:09:30.512Z,8.97
2022-09-14T10:11:37.779Z,8.80
2022-09-14T10:13:40.971Z,10.70
2022-09-14T10:15:45.274Z,7.40
2022-09-14T10:18:06.676Z,6.83
2022-09-14T10:20:22.278Z,8.07
2022-09-14T10:22:30.986Z,5.70
2022-09-14T10:24:35.323Z,6.53
2022-09-14T10:26:38.530Z,6.83
2022-09-14T10:28:43.224Z,7.73
2022-09-14T10:30:51.422Z,7.73
2022-09-14T10:33:00.415Z,6.70
2022-09-14T10:35:03.949Z,8.33
2022-09-14T10:37:17.297Z,5.87
2022-09-14T10:39:26.319Z,6.33
2022-09-14T10:41:35.263Z,6.40
2022-09-14T10:43:49.802Z,6.60
2022-09-14T10:46:00.198Z,6.37
2022-09-14T10:48:22.161Z,8.67
2022-09-14T10:50:42.738Z,8.70
2022-09-14T10:52:53.761Z,9.50
2022-09-14T10:55:11.103Z,9.10
2022-09-14T10:57:23.925Z,10.17
2022-09-14T10:59:33.412Z,9.77
2022-09-14T11:01:57.776Z,8.50
2022-09-14T11:04:16.272Z,8.17
2022-09-14T11:06:29.574Z,7.30
2022-09-14T11:08:37.309Z,10.17
2022-09-14T11:10:50.670Z,8.80
2022-09-14T11:13:08.795Z,8.40
2022-09-14T11:15:21.573Z,8.70
2022-09-14T11:17:49.597Z,11.60
2022-09-14T11:20:01.534Z,8.83
2022-09-14T11:22:11.439Z,8.03
2022-09-14T11:24:20.501Z,8.77
2022-09-14T11:26:31.379Z,11.97
2022-09-14T11:28:40.942Z,8.50
2022-09-14T11:30:47.912Z,8.27
2022-09-14T11:32:55.886Z,6.63
2022-09-14T11:35:03.319Z,7.37
2022-09-14T11:37:09.944Z,7.13
2022-09-14T11:39:17.780Z,8.03
2022-09-14T11:41:26.024Z,4.57
2022-09-14T11:43:32.851Z,4.10
2022-09-14T11:45:38.075Z,4.60
2022-09-14T11:47:46.409Z,5.67
2022-09-14T11:49:57.653Z,3.30
2022-09-14T11:52:08.633Z,4.80
2022-09-14T11:54:16.628Z,6.17
2022-09-14T11:56:26.485Z,3.50
2022-09-14T11:58:30.893Z,3.93
2022-09-14T12:01:02.985Z,2.93
2022-09-14T12:03:17.953Z,2.73
2022-09-14T12:05:34.370Z,5.63
2022-09-14T12:07:59.885Z,4.20
2022-09-14T12:10:19.226Z,3.43
2022-09-14T12:12:46.646Z,2.57
2022-09-14T12:14:50.407Z,2.33
2022-09-14T12:17:38.710Z,2.30
2022-09-14T12:19:43.585Z,2.43
2022-09-14T12:21:47.921Z,1.87
2022-09-14T12:23:57.030Z,2.30
2022-09-14T12:26:21.384Z,2.03
2022-09-14T12:28:30.575Z,3.60
2022-09-14T12:31:10.524Z,4.30
2022-09-14T12:34:05.994Z,3.00
2022-09-14T12:36:10.873Z,3.57
2022-09-14T12:38:42.953Z,4.67
2022-09-14T12:40:45.676Z,2.93
2022-09-14T12:42:48.635Z,2.83
2022-09-14T12:44:51.457Z,5.53
2022-09-14T12:46:55.550Z,4.03
2022-09-14T12:49:03.238Z,3.27
2022-09-14T12:51:07.037Z,3.97
2022-09-14T12:53:32.636Z,3.17
2022-09-14T12:55:45.035Z,2.30
2022-09-14T12:57:52.667Z,2.00
2022-09-14T13:00:01.973Z,2.53
2022-09-14T13:02:26.821Z,2.50
2022-09-14T13:04:36.563Z,2.93
2022-09-14T13:06:43.686Z,2.37
2022-09-14T13:08:49.140Z,2.90
2022-09-14T13:10:53.211Z,2.70
2022-09-14T13:12:58.133Z,4.97
2022-09-14T13:15:04.075Z,3.20
2022-09-14T13:17:14.061Z,4.03
2022-09-14T13:19:22.539Z,4.63
2022-09-14T13:21:26.650Z,4.97
2022-09-14T13:23:32.910Z,4.57
2022-09-14T13:25:37.364Z,4.10
2022-09-14T13:27:40.844Z,6.70
2022-09-14T13:29:43.654Z,2.67
2022-09-14T13:31:46.856Z,3.00
2022-09-14T13:33:52.051Z,6.03
2022-09-14T13:35:56.621Z,5.07
2022-09-14T13:38:06.977Z,4.23
2022-09-14T13:40:10.634Z,3.27
2022-09-14T13:42:14.427Z,4.43
2022-09-14T13:44:18.313Z,5.43
2022-09-14T13:46:22.354Z,2.20
2022-09-14T13:48:25.841Z,4.77
2022-09-14T13:50:28.859Z,4.40
2022-09-14T13:53:00.596Z,3.77
2022-09-14T13:55:19.047Z,5.30
2022-09-14T13:57:23.277Z,5.20
2022-09-14T13:59:26.133Z,2.97
2022-09-14T14:01:29.884Z,3.57
2022-09-14T14:03:36.690Z,3.47
2022-09-14T14:05:43.623Z,2.67
2022-09-14T14:07:46.933Z,2.47
2022-09-14T14:09:52.311Z,2.10
2022-09-14T14:11:56.732Z,2.87
2022-09-14T14:14:13.287Z,3.13
2022-09-14T14:16:19.218Z,2.70
2022-09-14T14:18:37.569Z,3.17
2022-09-14T14:20:40.694Z,2.93
2022-09-14T14:22:56.261Z,2.47
2022-09-14T14:25:13.258Z,6.53
2022-09-14T14:27:32.041Z,6.60
2022-09-14T14:29:34.775Z,3.33
2022-09-14T14:31:37.677Z,2.60
2022-09-14T14:33:46.171Z,2.80
2022-09-14T14:35:51.743Z,2.67
2022-09-14T14:37:54.674Z,2.77
2022-09-14T14:39:57.377Z,2.07
2022-09-14T14:42:02.519Z,2.57
2022-09-14T14:44:10.888Z,3.63
2022-09-14T14:46:14.794Z,2.27
2022-09-14T14:48:18.314Z,2.47
2022-09-14T14:50:23.806Z,3.77
2022-09-14T14:52:26.523Z,5.10
2022-09-14T14:54:29.224Z,2.87
2022-09-14T14:56:31.951Z,3.33
2022-09-14T14:58:36.435Z,2.30
2022-09-14T15:00:40.638Z,2.80
2022-09-14T15:02:43.927Z,3.00
2022-09-14T15:04:48.273Z,2.77
2022-09-14T15:06:51.388Z,3.63
2022-09-14T15:08:54.749Z,3.53
2022-09-14T15:10:58.263Z,4.20
2022-09-14T15:13:01.145Z,3.37
2022-09-14T15:15:04.544Z,3.30
2022-09-14T15:17:08.793Z,2.80
2022-09-14T15:19:11.525Z,4.80
2022-09-14T15:21:14.288Z,3.33
2022-09-14T15:23:17.402Z,3.17
2022-09-14T15:25:22.000Z,3.03
2022-09-14T15:27:24.701Z,3.47
2022-09-14T15:29:27.438Z,3.63
2022-09-14T15:31:30.504Z,2.83
2022-09-14T15:33:34.770Z,2.80
2022-09-14T15:35:37.516Z,4.53
2022-09-14T15:37:40.518Z,3.27
2022-09-14T15:39:46.112Z,3.40
2022-09-14T15:41:53.003Z,3.40
2022-09-14T15:43:55.735Z,4.27
2022-09-14T15:46:03.425Z,6.43
2022-09-14T15:48:06.357Z,4.90
2022-09-14T15:50:11.958Z,3.37
2022-09-14T15:52:14.692Z,3.23
2022-09-14T15:54:17.918Z,3.23
2022-09-14T15:56:20.691Z,3.40
2022-09-14T15:58:23.364Z,4.03
2022-09-14T16:00:26.065Z,4.17
2022-09-14T16:02:28.874Z,4.40
2022-09-14T16:04:36.979Z,5.07
2022-09-14T16:06:41.537Z,5.07
2022-09-14T16:08:44.600Z,5.33
2022-09-14T16:10:47.698Z,4.90
2022-09-14T16:12:50.548Z,4.70
2022-09-14T16:14:53.292Z,5.07
2022-09-14T16:16:56.121Z,6.17
2022-09-14T16:18:59.104Z,5.70
2022-09-14T16:21:07.866Z,5.80
2022-09-14T16:23:12.427Z,5.50
2022-09-14T16:25:15.400Z,5.60
2022-09-14T16:27:18.111Z,5.23
2022-09-14T16:29:24.059Z,5.23
2022-09-14T16:31:28.410Z,6.00
2022-09-14T16:33:31.119Z,5.80
2022-09-14T16:35:34.237Z,5.50
2022-09-14T16:37:36.991Z,6.20
2022-09-14T16:39:41.211Z,5.97
2022-09-14T16:41:44.003Z,4.87
2022-09-14T16:43:46.947Z,5.07
2022-09-14T16:45:49.733Z,3.97
2022-09-14T16:47:52.770Z,4.30
2022-09-14T16:49:55.611Z,4.10
2022-09-14T16:52:00.581Z,3.93
2022-09-14T16:54:03.342Z,4.30
2022-09-14T16:56:08.853Z,4.27
2022-09-14T16:58:11.527Z,4.17
2022-09-14T17:00:15.121Z,5.07
2022-09-14T17:02:17.927Z,4.30
2022-09-14T17:04:22.023Z,6.07
2022-09-14T17:06:31.622Z,3.40
2022-09-14T17:08:35.411Z,7.20
2022-09-14T17:10:38.098Z,4.27
2022-09-14T17:12:42.119Z,4.17
2022-09-14T17:14:44.825Z,4.87
2022-09-14T17:16:48.052Z,5.20
2022-09-14T17:18:52.598Z,5.10
2022-09-14T17:20:56.762Z,4.50
2022-09-14T17:22:59.465Z,4.90
2022-09-14T17:25:02.171Z,4.50
2022-09-14T17:27:05.066Z,5.97
2022-09-14T17:29:09.163Z,3.97
2022-09-14T17:31:13.814Z,4.30
2022-09-14T17:33:16.549Z,4.30
2022-09-14T17:35:19.298Z,4.17
2022-09-14T17:37:23.597Z,4.30
2022-09-14T17:39:26.495Z,3.80
2022-09-14T17:41:31.569Z,4.07
2022-09-14T17:43:35.839Z,5.13
2022-09-14T17:45:40.582Z,11.97
2022-09-14T17:47:43.317Z,19.07
2022-09-14T17:49:46.003Z,61.83
2022-09-14T17:51:49.235Z,48.10
2022-09-14T17:53:53.613Z,18.47
2022-09-14T17:56:02.778Z,8.07
2022-09-14T17:58:05.873Z,10.47
2022-09-14T18:00:10.201Z,9.97
2022-09-14T18:02:14.328Z,11.73
2022-09-14T18:04:17.433Z,10.90
2022-09-14T18:06:21.021Z,6.90
2022-09-14T18:08:23.734Z,6.63
2022-09-14T18:10:26.795Z,7.30
2022-09-14T18:12:33.863Z,8.23
2022-09-14T18:14:36.660Z,7.20
2022-09-14T18:16:39.810Z,7.30
2022-09-14T18:18:44.465Z,11.33
2022-09-14T18:20:47.205Z,10.17
2022-09-14T18:22:49.976Z,9.67
2022-09-14T18:24:52.762Z,9.33
2022-09-14T18:26:55.455Z,9.43
2022-09-14T18:28:58.688Z,8.07
2022-09-14T18:31:02.408Z,10.50
2022-09-14T18:33:05.257Z,8.80
2022-09-14T18:35:10.204Z,8.27
2022-09-14T18:37:13.469Z,7.47
2022-09-14T18:39:16.573Z,10.97
2022-09-14T18:41:20.055Z,11.30
2022-09-14T18:43:22.800Z,10.37
2022-09-14T18:45:25.532Z,14.63
2022-09-14T18:47:28.256Z,10.43
2022-09-14T18:49:30.944Z,20.70
2022-09-14T18:51:34.969Z,13.50
2022-09-14T18:53:37.915Z,16.33
2022-09-14T18:55:40.641Z,18.53
2022-09-14T18:57:47.000Z,14.63
2022-09-14T18:59:49.705Z,13.13
2022-09-14T19:01:52.437Z,17.03
2022-09-14T19:03:55.976Z,18.00
2022-09-14T19:05:59.396Z,13.97
2022-09-14T19:08:03.616Z,18.40
2022-09-14T19:10:11.476Z,13.33
2022-09-14T19:12:14.541Z,23.03
2022-09-14T19:14:17.554Z,15.87
2022-09-14T19:16:20.413Z,17.80
2022-09-14T19:18:23.526Z,25.00
2022-09-14T19:20:38.108Z,18.00
2022-09-14T19:22:46.387Z,14.57
2022-09-14T19:24:50.467Z,23.87
2022-09-14T19:26:53.562Z,19.03
2022-09-14T19:28:56.285Z,22.37
2022-09-14T19:30:59.245Z,18.50
2022-09-14T19:33:01.988Z,22.37
2022-09-14T19:35:05.832Z,17.80
2022-09-14T19:37:08.636Z,18.53
2022-09-14T19:39:11.798Z,21.07
2022-09-14T19:41:16.417Z,23.53
2022-09-14T19:43:19.318Z,21.43
2022-09-14T19:45:22.119Z,20.37
2022-09-14T19:47:24.823Z,20.70
2022-09-14T19:49:27.619Z,21.63
2022-09-14T19:51:31.394Z,18.47
2022-09-14T19:53:35.623Z,23.27
2022-09-14T19:55:38.494Z,22.13
2022-09-14T19:57:42.609Z,21.07
2022-09-14T19:59:45.629Z,14.63
2022-09-14T20:01:48.913Z,16.60
2022-09-14T20:03:52.117Z,15.60
2022-09-14T20:06:00.753Z,14.53
2022-09-14T20:08:03.898Z,14.17
2022-09-14T20:10:07.579Z,14.27
2022-09-14T20:12:10.261Z,15.57
2022-09-14T20:14:17.435Z,11.83
2022-09-14T20:16:22.919Z,11.80
2022-09-14T20:18:25.705Z,13.83
2022-09-14T20:20:28.586Z,12.20
2022-09-14T20:22:31.307Z,11.90
2022-09-14T20:24:35.770Z,12.03
2022-09-14T20:26:38.565Z,9.53
2022-09-14T20:28:42.532Z,9.97
2022-09-14T20:30:58.011Z,10.30
2022-09-14T20:33:00.713Z,9.77
2022-09-14T20:35:03.506Z,8.70
2022-09-14T20:37:06.369Z,11.27
2022-09-14T20:39:09.698Z,10.50
2022-09-14T20:41:15.815Z,11.07
2022-09-14T20:43:18.619Z,12.20
2022-09-14T20:45:21.448Z,10.77
2022-09-14T20:47:25.601Z,10.37
2022-09-14T20:49:29.017Z,11.50
2022-09-14T20:51:32.291Z,10.87
2022-09-14T20:53:37.184Z,11.70
2022-09-14T20:55:39.867Z,16.37
2022-09-14T20:57:42.597Z,10.43
2022-09-14T20:59:45.321Z,8.57
2022-09-14T21:01:50.316Z,10.30
2022-09-14T21:03:54.901Z,9.97
2022-09-14T21:06:00.142Z,6.70
2022-09-14T21:08:04.068Z,12.27
2022-09-14T21:10:08.125Z,7.50
2022-09-14T21:12:13.994Z,6.73
2022-09-14T21:14:18.243Z,6.53
2022-09-14T21:16:22.951Z,5.30
2022-09-14T21:18:25.845Z,7.07
2022-09-14T21:20:30.009Z,6.13
2022-09-14T21:22:32.788Z,6.00
2022-09-14T21:24:36.192Z,8.43
2022-09-14T21:26:42.543Z,6.53
2022-09-14T21:28:45.939Z,6.40
2022-09-14T21:30:49.196Z,6.93
2022-09-14T21:32:52.278Z,4.63
2022-09-14T21:34:55.000Z,4.93
2022-09-14T21:36:59.078Z,5.60
2022-09-14T21:39:05.159Z,7.27
2022-09-14T21:41:09.341Z,5.53
2022-09-14T21:43:12.171Z,5.23
2022-09-14T21:45:15.297Z,7.03
2022-09-14T21:47:17.984Z,8.40
2022-09-14T21:49:22.290Z,9.53
2022-09-14T21:51:27.018Z,6.47
2022-09-14T21:53:31.062Z,7.80
2022-09-14T21:55:38.514Z,11.27
2022-09-14T21:57:41.459Z,6.67
2022-09-14T21:59:44.371Z,4.73
2022-09-14T22:01:47.589Z,6.33
2022-09-14T22:03:51.552Z,6.67
2022-09-14T22:05:58.925Z,5.13
2022-09-14T22:08:01.800Z,7.27
2022-09-14T22:10:07.969Z,7.70
2022-09-14T22:12:10.766Z,7.07
2022-09-14T22:14:15.429Z,11.03
2022-09-14T22:16:18.518Z,9.17
2022-09-14T22:18:21.240Z,9.20
2022-09-14T22:20:24.339Z,8.40
2022-09-14T22:22:27.133Z,7.77
2022-09-14T22:24:36.995Z,10.53
2022-09-14T22:26:43.225Z,11.37
2022-09-14T22:28:45.913Z,8.50
2022-09-14T22:30:51.979Z,7.23
2022-09-14T22:32:54.721Z,8.03
2022-09-14T22:34:57.411Z,11.47
2022-09-14T22:37:00.368Z,9.50
2022-09-14T22:39:03.333Z,8.77
2022-09-14T22:41:08.151Z,12.27
2022-09-14T22:43:12.170Z,11.43
2022-09-14T22:45:14.968Z,14.50
2022-09-14T22:47:17.642Z,11.30
2022-09-14T22:49:20.303Z,13.87
2022-09-14T22:51:24.659Z,14.00
2022-09-14T22:53:27.862Z,13.30
2022-09-14T22:55:30.587Z,14.30
2022-09-14T22:57:33.304Z,15.70
2022-09-14T22:59:37.361Z,13.80
2022-09-14T23:01:41.914Z,15.90
2022-09-14T23:03:44.747Z,15.40
2022-09-14T23:05:51.980Z,14.47
2022-09-14T23:07:56.027Z,17.37
2022-09-14T23:09:59.727Z,17.97
2022-09-14T23:12:03.007Z,19.43
2022-09-14T23:14:05.733Z,18.30
2022-09-14T23:16:14.392Z,18.07
2022-09-14T23:18:17.178Z,18.60
2022-09-14T23:20:19.962Z,16.70
2022-09-14T23:22:22.668Z,17.70
2022-09-14T23:24:25.374Z,18.03
2022-09-14T23:26:28.949Z,16.63
2022-09-14T23:28:32.003Z,16.00
2022-09-14T23:30:36.398Z,15.50
2022-09-14T23:32:40.517Z,18.50
2022-09-14T23:34:43.198Z,13.40
2022-09-14T23:36:45.902Z,19.10
2022-09-14T23:38:48.953Z,16.17
2022-09-14T23:40:51.949Z,18.40
2022-09-14T23:42:54.965Z,16.17
2022-09-14T23:44:57.706Z,16.37
2022-09-14T23:47:00.568Z,18.97
2022-09-14T23:49:04.595Z,20.07
2022-09-14T23:51:09.063Z,17.43
2022-09-14T23:53:11.826Z,17.77
2022-09-14T23:55:14.583Z,21.47
2022-09-14T23:57:17.670Z,18.67
2022-09-14T23:59:20.414Z,19.67
